YXPI weather

Pindarra Hospital Helipad
Gold Coast, Queensland, Australia

Public forecast

Using degrees Celsius for public forecast. Weather courtesy of forecast.io.

METAR (pilot weather report)

Closest report is Gold Coast Airport, 11.1 nm (20.6 km) SSE. Retrieved 2019/04/22 18:30 UTC (0 seconds ago):

YBCG 221830Z AUTO 18006KT 9999 // SCT036 SCT047 19/18 Q1022

TAF (pilot weather forecast)

Forecast is more than 6 hours old.

Closest forecast is Gold Coast Airport, 11.1 nm (20.6 km) SSE. Retrieved 2019/04/22 12:00 UTC (6 hours ago):

TAF YBCG 221109Z 2212/2312 21008KT 9999 -SHRA FEW010 SCT020 BKN040 FM222300 12013KT 9999 SCT030 INTER 2212/2222 11015KT 2500 SHRA BKN010